Aviation Digital Data Service (ADDS)

Output produced by METARs form (1300 UTC 11 February 2016)
found at http://aviationweather.gov/adds/metars/
 
KCRG 111131Z 1112/1212 25005KT P6SM SKC 
     FM111800 20009KT P6SM FEW250 
     FM120500 22007KT P6SM SCT025